createdAt,value
2022-08-20T00:09:02.836Z,1009.06
2022-08-20T00:10:02.816Z,1009.07
2022-08-20T00:11:02.799Z,1009.02
2022-08-20T00:12:02.785Z,1009.03
2022-08-20T00:13:02.765Z,1009.07
2022-08-20T00:14:02.750Z,1009.07
2022-08-20T00:15:02.729Z,1009.07
2022-08-20T00:16:02.712Z,1009.07
2022-08-20T00:17:02.694Z,1009.05
2022-08-20T00:18:02.675Z,1009.04
2022-08-20T00:19:02.664Z,1009.09
2022-08-20T00:20:02.643Z,1009.02
2022-08-20T00:21:02.626Z,1009.07
2022-08-20T00:22:02.605Z,1009.04
2022-08-20T00:23:04.395Z,1009.02
2022-08-20T00:24:02.573Z,1009.00
2022-08-20T00:25:02.554Z,1009.00
2022-08-20T00:26:02.535Z,1008.99
2022-08-20T00:27:02.525Z,1008.99
2022-08-20T00:28:02.500Z,1009.01
2022-08-20T00:29:02.486Z,1009.03
2022-08-20T00:30:02.471Z,1009.07
2022-08-20T00:31:02.450Z,1009.07
2022-08-20T00:32:02.432Z,1009.07
2022-08-20T00:33:02.415Z,1009.09
2022-08-20T00:34:02.398Z,1009.10
2022-08-20T00:35:02.382Z,1009.10
2022-08-20T00:36:02.361Z,1009.07
2022-08-20T00:37:02.347Z,1009.08
2022-08-20T00:38:02.599Z,1009.10
2022-08-20T00:47:02.163Z,1009.13
2022-08-20T00:48:02.143Z,1009.18
2022-08-20T00:49:02.321Z,1009.13
2022-08-20T00:50:02.108Z,1009.09
2022-08-20T00:51:02.092Z,1009.11
2022-08-20T00:52:02.078Z,1009.15
2022-08-20T00:53:02.057Z,1009.07
2022-08-20T00:54:02.036Z,1009.07
2022-08-20T00:55:02.021Z,1009.05
2022-08-20T00:56:02.001Z,1009.08
2022-08-20T00:57:01.984Z,1009.07
2022-08-20T00:58:02.206Z,1009.09
2022-08-20T00:59:01.949Z,1009.10
2022-08-20T01:00:01.930Z,1009.05
2022-08-20T01:01:01.915Z,1009.03
2022-08-20T01:02:01.982Z,1009.09
2022-08-20T01:03:01.877Z,1009.06
2022-08-20T01:04:01.859Z,1009.09
2022-08-20T01:05:01.842Z,1009.12
2022-08-20T01:06:01.819Z,1009.11
2022-08-20T01:07:01.804Z,1009.15
2022-08-20T01:08:01.785Z,1009.19
2022-08-20T01:09:01.767Z,1009.15
2022-08-20T01:10:01.751Z,1009.14
2022-08-20T01:11:01.732Z,1009.17
2022-08-20T01:12:01.713Z,1009.15
2022-08-20T01:13:01.699Z,1009.12
2022-08-20T01:14:01.678Z,1009.14
2022-08-20T01:15:01.660Z,1009.08
2022-08-20T01:16:01.645Z,1009.10
2022-08-20T01:17:01.629Z,1009.04
2022-08-20T01:23:01.513Z,1009.07
2022-08-20T01:24:01.496Z,1009.04
2022-08-20T01:25:01.479Z,1009.06
2022-08-20T01:26:01.460Z,1009.07
2022-08-20T01:27:01.446Z,1009.07
2022-08-20T01:28:01.734Z,1009.07
2022-08-20T01:29:01.407Z,1009.09
2022-08-20T01:30:01.386Z,1009.09
2022-08-20T01:31:01.371Z,1009.07
2022-08-20T01:32:01.526Z,1009.10
2022-08-20T01:33:01.335Z,1009.11
2022-08-20T01:34:01.315Z,1009.15
2022-08-20T01:35:01.301Z,1009.14
2022-08-20T01:36:01.278Z,1009.18
2022-08-20T01:37:01.263Z,1009.21
2022-08-20T01:38:01.244Z,1009.25
2022-08-20T01:39:01.225Z,1009.24
2022-08-20T01:40:01.272Z,1009.25
2022-08-20T01:41:01.190Z,1009.29
2022-08-20T01:42:01.168Z,1009.27
2022-08-20T01:43:01.154Z,1009.28
2022-08-20T01:44:01.137Z,1009.27
2022-08-20T01:45:01.766Z,1009.29
2022-08-20T01:46:01.098Z,1009.33
2022-08-20T01:47:01.079Z,1009.36
2022-08-20T01:48:01.145Z,1009.34
2022-08-20T01:49:01.047Z,1009.39
2022-08-20T01:50:01.027Z,1009.43
2022-08-20T01:51:01.006Z,1009.44
2022-08-20T01:52:00.989Z,1009.45
2022-08-20T01:53:00.971Z,1009.48
2022-08-20T01:54:00.950Z,1009.46
2022-08-20T01:55:00.934Z,1009.48
2022-08-20T01:56:00.915Z,1009.45
2022-08-20T01:59:00.862Z,1009.44
2022-08-20T02:00:00.843Z,1009.43
2022-08-20T02:01:00.824Z,1009.45
2022-08-20T02:02:00.833Z,1009.45
2022-08-20T02:03:00.786Z,1009.42
2022-08-20T02:04:00.775Z,1009.44
2022-08-20T02:05:00.752Z,1009.47
2022-08-20T02:06:00.733Z,1009.48
2022-08-20T02:07:00.715Z,1009.48
2022-08-20T02:08:00.696Z,1009.49
2022-08-20T02:09:00.685Z,1009.51
2022-08-20T02:10:00.660Z,1009.50
2022-08-20T02:11:00.645Z,1009.53
2022-08-20T02:12:00.623Z,1009.53
2022-08-20T02:13:00.615Z,1009.53
2022-08-20T02:14:00.587Z,1009.48
2022-08-20T02:15:00.571Z,1009.51
2022-08-20T02:16:00.550Z,1009.50
2022-08-20T02:17:00.532Z,1009.51
2022-08-20T02:18:00.514Z,1009.52
2022-08-20T02:19:00.494Z,1009.52
2022-08-20T02:20:00.477Z,1009.50
2022-08-20T02:21:00.459Z,1009.55
2022-08-20T02:22:00.444Z,1009.54
2022-08-20T02:23:00.426Z,1009.54
2022-08-20T02:24:00.404Z,1009.55
2022-08-20T02:25:00.385Z,1009.56
2022-08-20T02:26:00.370Z,1009.55
2022-08-20T02:27:00.347Z,1009.57
2022-08-20T02:28:00.337Z,1009.59
2022-08-20T02:29:01.187Z,1009.61
2022-08-20T02:30:00.298Z,1009.60
2022-08-20T02:31:00.274Z,1009.60
2022-08-20T02:32:32.124Z,1009.63
2022-08-20T02:33:00.238Z,1009.66
2022-08-20T02:34:21.847Z,1009.65
2022-08-20T02:35:00.203Z,1009.67
2022-08-20T02:36:00.187Z,1009.65
2022-08-20T02:37:00.167Z,1009.66
2022-08-20T02:38:00.149Z,1009.65
2022-08-20T02:39:00.131Z,1009.64
2022-08-20T02:40:00.237Z,1009.64
2022-08-20T02:41:00.096Z,1009.59
2022-08-20T02:42:00.078Z,1009.57
2022-08-20T02:43:00.070Z,1009.61
2022-08-20T02:44:00.040Z,1009.60
2022-08-20T02:45:00.022Z,1009.60
2022-08-20T02:46:00.015Z,1009.61
2022-08-20T02:46:59.984Z,1009.59
2022-08-20T03:08:59.584Z,1009.46
2022-08-20T03:09:59.567Z,1009.44
2022-08-20T03:10:59.550Z,1009.42
2022-08-20T03:49:00.505Z,1009.45
2022-08-20T03:49:58.836Z,1009.44
2022-08-20T03:50:58.818Z,1009.42
2022-08-20T03:51:58.808Z,1009.44
2022-08-20T03:52:58.781Z,1009.43
2022-08-20T04:23:58.213Z,1009.65
2022-08-20T04:24:58.190Z,1009.66
2022-08-20T04:25:58.173Z,1009.64
2022-08-20T04:26:58.156Z,1009.66
2022-08-20T04:27:58.600Z,1009.69
2022-08-20T04:28:58.119Z,1009.72
2022-08-20T04:29:58.101Z,1009.71
2022-08-20T04:30:58.081Z,1009.70
2022-08-20T04:57:57.749Z,1009.98
2022-08-20T04:58:57.568Z,1009.99
2022-08-20T04:59:59.444Z,1010.03
2022-08-20T05:01:01.372Z,1010.04
2022-08-20T05:01:57.508Z,1010.03
2022-08-20T05:02:57.488Z,1010.04
2022-08-20T05:03:57.474Z,1010.07
2022-08-20T05:04:57.452Z,1010.05
2022-08-20T05:05:57.435Z,1010.10
2022-08-20T05:06:57.412Z,1010.10
2022-08-20T05:07:57.529Z,1010.13
2022-08-20T05:08:57.375Z,1010.10
2022-08-20T05:09:57.357Z,1010.14
2022-08-20T05:35:56.877Z,1010.22
2022-08-20T05:36:56.856Z,1010.25
2022-08-20T05:37:57.105Z,1010.21
2022-08-20T05:38:56.821Z,1010.23
2022-08-20T05:39:56.941Z,1010.24
2022-08-20T05:40:56.784Z,1010.25
2022-08-20T05:41:56.766Z,1010.24
2022-08-20T05:42:56.748Z,1010.22
2022-08-20T05:43:56.730Z,1010.21
2022-08-20T05:44:56.712Z,1010.27
2022-08-20T05:45:56.906Z,1010.24
2022-08-20T05:46:56.710Z,1010.25
2022-08-20T05:47:56.767Z,1010.19
2022-08-20T06:14:56.157Z,1010.33
2022-08-20T06:15:56.141Z,1010.36
2022-08-20T06:16:57.680Z,1010.36
2022-08-20T06:17:58.372Z,1010.36
2022-08-20T06:18:58.188Z,1010.38
2022-08-20T06:19:56.070Z,1010.37
2022-08-20T06:20:56.056Z,1010.37
2022-08-20T06:21:56.034Z,1010.41
2022-08-20T06:22:56.014Z,1010.40
2022-08-20T06:23:57.764Z,1010.36
2022-08-20T06:24:55.976Z,1010.38
2022-08-20T06:25:55.955Z,1010.40
2022-08-20T06:48:55.535Z,1010.40
2022-08-20T06:49:55.513Z,1010.41
2022-08-20T06:50:55.497Z,1010.39
2022-08-20T06:51:55.479Z,1010.39
2022-08-20T06:52:55.465Z,1010.41
2022-08-20T06:53:55.447Z,1010.39
2022-08-20T06:54:55.434Z,1010.39
2022-08-20T06:55:55.405Z,1010.39
2022-08-20T06:56:55.391Z,1010.35
2022-08-20T06:57:55.374Z,1010.34
2022-08-20T06:58:55.351Z,1010.31
2022-08-20T06:59:55.333Z,1010.35
2022-08-20T07:00:55.388Z,1010.32
2022-08-20T07:01:55.294Z,1010.36
2022-08-20T07:02:55.325Z,1010.34
2022-08-20T07:24:54.878Z,1010.57
2022-08-20T07:25:54.857Z,1010.59
2022-08-20T07:26:56.967Z,1010.61
2022-08-20T07:27:54.820Z,1010.60
2022-08-20T07:28:54.803Z,1010.61
2022-08-20T07:29:54.782Z,1010.63
2022-08-20T07:30:56.481Z,1010.63
2022-08-20T07:31:54.745Z,1010.66
2022-08-20T07:32:54.727Z,1010.64
2022-08-20T07:33:54.709Z,1010.69
2022-08-20T07:34:54.692Z,1010.72
2022-08-20T07:35:54.671Z,1010.73
2022-08-20T07:36:55.054Z,1010.76
2022-08-20T07:37:54.637Z,1010.73
2022-08-20T07:38:54.616Z,1010.74
2022-08-20T07:39:54.668Z,1010.71
2022-08-20T07:40:54.585Z,1010.69
2022-08-20T07:41:56.625Z,1010.68
2022-08-20T07:42:54.728Z,1010.62
2022-08-20T08:00:54.246Z,1010.77
2022-08-20T08:01:54.198Z,1010.77
2022-08-20T08:02:54.181Z,1010.78
2022-08-20T08:03:54.161Z,1010.75
2022-08-20T08:04:54.149Z,1010.75
2022-08-20T08:05:54.127Z,1010.74
2022-08-20T08:06:54.109Z,1010.76
2022-08-20T08:07:54.098Z,1010.78
2022-08-20T08:08:54.079Z,1010.73
2022-08-20T08:09:54.054Z,1010.74
2022-08-20T08:10:54.038Z,1010.76
2022-08-20T08:11:54.017Z,1010.74
2022-08-20T08:12:54.002Z,1010.77
2022-08-20T08:13:53.982Z,1010.80
2022-08-20T08:14:53.964Z,1010.82
2022-08-20T08:15:53.947Z,1010.75
2022-08-20T08:16:53.935Z,1010.81
2022-08-20T08:17:53.911Z,1010.79
2022-08-20T08:18:53.894Z,1010.81
2022-08-20T08:19:53.876Z,1010.83
2022-08-20T08:20:53.869Z,1010.82
2022-08-20T08:21:53.856Z,1010.83
2022-08-20T08:22:53.868Z,1010.83
2022-08-20T08:23:53.803Z,1010.81
2022-08-20T08:24:57.377Z,1010.91
2022-08-20T08:40:59.757Z,1010.80
2022-08-20T08:41:53.494Z,1010.78
2022-08-20T08:42:53.473Z,1010.83
2022-08-20T08:43:53.535Z,1010.86
2022-08-20T08:44:53.439Z,1010.85
2022-08-20T08:45:53.421Z,1010.96
2022-08-20T08:46:53.412Z,1011.01
2022-08-20T08:47:53.385Z,1011.02
2022-08-20T08:48:53.374Z,1010.98
2022-08-20T08:49:53.350Z,1010.95
2022-08-20T08:50:54.818Z,1010.96
2022-08-20T08:51:53.317Z,1010.99
2022-08-20T08:52:53.298Z,1010.97
2022-08-20T08:53:53.283Z,1010.92
2022-08-20T08:54:53.267Z,1010.94
2022-08-20T08:55:53.249Z,1010.87
2022-08-20T08:56:53.228Z,1010.86
2022-08-20T08:57:53.209Z,1010.85
2022-08-20T08:58:53.194Z,1010.90
2022-08-20T09:00:03.943Z,1010.91
2022-08-20T09:00:57.512Z,1010.97
2022-08-20T09:01:56.852Z,1010.97
2022-08-20T09:13:52.933Z,1010.97
2022-08-20T09:14:52.920Z,1010.96
2022-08-20T09:15:52.898Z,1010.97
2022-08-20T09:16:53.637Z,1011.07
2022-08-20T09:17:52.957Z,1011.03
2022-08-20T09:18:52.863Z,1010.96
2022-08-20T09:19:52.830Z,1011.00
2022-08-20T09:20:52.813Z,1011.05
2022-08-20T09:21:52.808Z,1011.05
2022-08-20T09:22:52.860Z,1011.16
2022-08-20T09:23:52.762Z,1011.16
2022-08-20T09:24:52.744Z,1011.17
2022-08-20T09:25:52.726Z,1011.15
2022-08-20T09:26:52.712Z,1011.18
2022-08-20T09:27:52.702Z,1011.20
2022-08-20T09:28:52.675Z,1011.17
2022-08-20T09:29:52.657Z,1011.14
2022-08-20T09:30:52.643Z,1011.16
2022-08-20T09:31:52.622Z,1011.12
2022-08-20T09:32:52.657Z,1011.15
2022-08-20T09:33:52.592Z,1011.14
2022-08-20T09:34:52.713Z,1011.11
2022-08-20T09:35:52.555Z,1011.09
2022-08-20T09:36:52.538Z,1011.07
2022-08-20T09:37:52.608Z,1011.12
2022-08-20T09:38:52.512Z,1011.06
2022-08-20T09:39:52.530Z,1011.10
2022-08-20T09:49:52.320Z,1011.05
2022-08-20T09:50:52.307Z,1011.12
2022-08-20T09:51:52.287Z,1011.10
2022-08-20T09:52:52.274Z,1011.11
2022-08-20T09:53:52.260Z,1011.08
2022-08-20T09:54:52.238Z,1011.07
2022-08-20T09:55:52.222Z,1011.01
2022-08-20T09:56:52.206Z,1010.95
2022-08-20T09:57:52.237Z,1010.99
2022-08-20T09:58:52.173Z,1010.98
2022-08-20T09:59:52.154Z,1010.95
2022-08-20T10:00:52.144Z,1010.96
2022-08-20T10:01:52.191Z,1010.96
2022-08-20T10:02:52.104Z,1010.98
2022-08-20T10:03:52.087Z,1011.01
2022-08-20T10:04:52.071Z,1011.04
2022-08-20T10:05:52.057Z,1011.03
2022-08-20T10:06:52.038Z,1011.03
2022-08-20T10:07:52.112Z,1011.03
2022-08-20T10:08:52.004Z,1011.05
2022-08-20T10:09:51.984Z,1011.03
2022-08-20T10:10:51.970Z,1011.03
2022-08-20T10:11:51.953Z,1011.03
2022-08-20T10:12:54.906Z,1011.00
2022-08-20T10:13:51.920Z,1011.14
2022-08-20T10:14:51.902Z,1011.16
2022-08-20T10:15:51.893Z,1011.18
2022-08-20T10:16:51.868Z,1011.15
2022-08-20T10:17:51.848Z,1011.11
2022-08-20T10:18:51.834Z,1011.10
2022-08-20T10:19:51.817Z,1011.13
2022-08-20T10:20:51.809Z,1011.08
2022-08-20T10:21:51.783Z,1011.11
2022-08-20T10:30:51.636Z,1011.05
2022-08-20T10:31:51.617Z,1011.14
2022-08-20T10:32:51.601Z,1011.15
2022-08-20T10:33:51.583Z,1011.18
2022-08-20T10:34:51.566Z,1011.16
2022-08-20T10:35:51.558Z,1011.16
2022-08-20T10:36:51.534Z,1011.08
2022-08-20T10:37:51.527Z,1011.07
2022-08-20T10:38:51.505Z,1011.10
2022-08-20T10:39:51.601Z,1011.09
2022-08-20T10:40:52.544Z,1011.12
2022-08-20T10:41:51.456Z,1011.11
2022-08-20T10:42:51.436Z,1011.11
2022-08-20T10:43:51.419Z,1011.11
2022-08-20T10:44:51.405Z,1011.10
2022-08-20T10:45:51.390Z,1011.08
2022-08-20T10:46:51.369Z,1011.10
2022-08-20T10:47:51.352Z,1011.08
2022-08-20T10:48:51.336Z,1011.07
2022-08-20T10:49:51.322Z,1011.10
2022-08-20T10:50:51.306Z,1011.11
2022-08-20T10:51:51.285Z,1011.21
2022-08-20T10:52:51.272Z,1011.24
2022-08-20T10:53:51.252Z,1011.25
2022-08-20T10:54:51.237Z,1011.14
2022-08-20T10:55:51.218Z,1011.14
2022-08-20T10:56:51.201Z,1011.18
2022-08-20T10:57:51.185Z,1011.12
2022-08-20T10:58:51.169Z,1011.12
2022-08-20T10:59:51.159Z,1011.09
2022-08-20T11:00:51.139Z,1011.07
2022-08-20T11:01:51.153Z,1011.02
2022-08-20T11:02:51.103Z,1011.04
2022-08-20T11:08:08.514Z,1011.00
2022-08-20T11:08:51.004Z,1011.02
2022-08-20T11:09:50.987Z,1011.03
2022-08-20T11:10:50.969Z,1010.97
2022-08-20T11:11:50.954Z,1010.97
2022-08-20T11:12:50.941Z,1010.95
2022-08-20T11:13:50.921Z,1010.95
2022-08-20T11:14:50.901Z,1010.98
2022-08-20T11:15:50.886Z,1011.02
2022-08-20T11:16:50.878Z,1010.97
2022-08-20T11:17:51.042Z,1010.99
2022-08-20T11:18:50.834Z,1010.99
2022-08-20T11:19:50.821Z,1011.00
2022-08-20T11:20:50.800Z,1011.01
2022-08-20T11:21:50.784Z,1011.02
2022-08-20T11:22:50.767Z,1011.02
2022-08-20T11:23:50.749Z,1011.14
2022-08-20T11:24:50.732Z,1011.13
2022-08-20T11:25:50.728Z,1011.11
2022-08-20T11:26:50.703Z,1011.04
2022-08-20T11:27:50.748Z,1011.02
2022-08-20T11:28:50.661Z,1011.03
2022-08-20T11:29:50.649Z,1011.11
2022-08-20T11:30:50.633Z,1011.16
2022-08-20T11:31:50.618Z,1011.19
2022-08-20T11:32:50.599Z,1011.12
2022-08-20T11:33:50.582Z,1011.05
2022-08-20T11:34:50.564Z,1011.08
2022-08-20T11:35:50.555Z,1011.08
2022-08-20T11:36:50.530Z,1011.06
2022-08-20T11:37:50.649Z,1011.05
2022-08-20T11:38:50.502Z,1011.06
2022-08-20T11:39:50.546Z,1011.05
2022-08-20T11:41:54.743Z,1011.11
2022-08-20T11:43:13.201Z,1011.14
2022-08-20T11:44:10.408Z,1011.20
2022-08-20T11:44:50.395Z,1011.19
2022-08-20T11:45:50.430Z,1011.17
2022-08-20T11:46:50.369Z,1011.13
2022-08-20T11:47:50.396Z,1011.18
2022-08-20T11:48:50.336Z,1011.15
2022-08-20T11:49:50.317Z,1011.17
2022-08-20T11:50:50.295Z,1011.17
2022-08-20T11:51:50.416Z,1011.23
2022-08-20T11:52:50.261Z,1011.21
2022-08-20T11:53:50.254Z,1011.18
2022-08-20T11:54:54.354Z,1011.18
2022-08-20T11:55:50.216Z,1011.11
2022-08-20T11:56:50.192Z,1011.14
2022-08-20T11:57:50.236Z,1011.15
2022-08-20T11:58:50.167Z,1011.15
2022-08-20T11:59:50.142Z,1011.10
2022-08-20T12:00:50.127Z,1011.14
2022-08-20T12:02:03.161Z,1011.07
2022-08-20T12:02:50.359Z,1011.07
2022-08-20T12:03:50.081Z,1011.20
2022-08-20T12:04:50.057Z,1011.10
2022-08-20T12:05:50.047Z,1011.12
2022-08-20T12:06:50.023Z,1011.19
2022-08-20T12:07:50.009Z,1011.20
2022-08-20T12:08:49.991Z,1011.24
2022-08-20T12:09:51.226Z,1011.25
2022-08-20T12:16:49.856Z,1011.26
2022-08-20T12:17:49.837Z,1011.29
2022-08-20T12:59:49.115Z,1011.35
2022-08-20T13:00:50.560Z,1011.28
2022-08-20T13:01:49.126Z,1011.34
2022-08-20T13:40:49.054Z,1011.21
2022-08-20T13:41:48.410Z,1011.20
2022-08-20T13:42:48.391Z,1011.18
2022-08-20T13:43:48.376Z,1011.18
2022-08-20T13:44:48.360Z,1011.21
2022-08-20T13:45:48.344Z,1011.12
2022-08-20T13:46:48.326Z,1011.16
2022-08-20T13:47:48.313Z,1011.15
2022-08-20T14:20:47.749Z,1011.25
2022-08-20T14:21:47.743Z,1011.25
2022-08-20T14:22:47.717Z,1011.23
2022-08-20T14:23:47.703Z,1011.28
2022-08-20T14:24:47.682Z,1011.24
2022-08-20T14:25:47.670Z,1011.24
2022-08-20T14:26:47.652Z,1011.23
2022-08-20T14:27:47.635Z,1011.14
2022-08-20T14:28:47.615Z,1011.11
2022-08-20T14:29:47.600Z,1011.09
2022-08-20T14:30:52.630Z,1011.18
2022-08-20T14:31:47.569Z,1011.20
2022-08-20T15:03:47.033Z,1011.15
2022-08-20T15:04:51.652Z,1011.15
2022-08-20T15:05:46.999Z,1011.14
2022-08-20T15:06:46.985Z,1011.13
2022-08-20T15:07:46.968Z,1011.09
2022-08-20T15:08:46.954Z,1011.12
2022-08-20T15:09:46.934Z,1011.08
2022-08-20T15:10:46.924Z,1011.10
2022-08-20T15:11:46.901Z,1011.12
2022-08-20T15:12:46.888Z,1011.04
2022-08-20T15:13:46.869Z,1011.10
2022-08-20T15:40:46.431Z,1011.21
2022-08-20T15:41:46.409Z,1011.20
2022-08-20T15:42:46.683Z,1011.26
2022-08-20T15:43:46.376Z,1011.24
2022-08-20T15:44:46.361Z,1011.29
2022-08-20T15:45:46.343Z,1011.29
2022-08-20T15:46:46.330Z,1011.27
2022-08-20T15:47:46.314Z,1011.27
2022-08-20T15:48:46.294Z,1011.23
2022-08-20T15:49:46.276Z,1011.22
2022-08-20T15:50:46.262Z,1011.23
2022-08-20T15:51:46.245Z,1011.22
2022-08-20T15:52:46.232Z,1011.21
2022-08-20T15:53:46.210Z,1011.23
2022-08-20T16:20:48.011Z,1011.19
2022-08-20T16:21:45.748Z,1011.19
2022-08-20T16:22:45.733Z,1011.17
2022-08-20T16:23:45.716Z,1011.15
2022-08-20T16:24:45.701Z,1011.15
2022-08-20T16:25:45.684Z,1011.14
2022-08-20T16:26:45.666Z,1011.12
2022-08-20T16:27:45.648Z,1011.15
2022-08-20T16:28:45.632Z,1011.12
2022-08-20T16:29:45.615Z,1011.16
2022-08-20T16:30:45.601Z,1011.15
2022-08-20T16:31:45.582Z,1011.15
2022-08-20T16:32:45.567Z,1011.16
2022-08-20T16:33:45.549Z,1011.17
2022-08-20T16:34:45.542Z,1011.15
2022-08-20T16:35:45.523Z,1011.12
2022-08-20T16:36:45.502Z,1011.14
2022-08-20T16:57:45.151Z,1011.22
2022-08-20T16:58:45.133Z,1011.23
2022-08-20T16:59:45.116Z,1011.24
2022-08-20T17:00:45.698Z,1011.23
2022-08-20T17:01:45.081Z,1011.25
2022-08-20T17:02:45.065Z,1011.23
2022-08-20T17:03:45.048Z,1011.18
2022-08-20T17:04:45.032Z,1011.20
2022-08-20T17:05:45.015Z,1011.19
2022-08-20T17:06:45.001Z,1011.20
2022-08-20T17:07:46.292Z,1011.22
2022-08-20T17:08:44.966Z,1011.26
2022-08-20T17:09:44.948Z,1011.23
2022-08-20T17:10:44.929Z,1011.25
2022-08-20T17:11:44.914Z,1011.27
2022-08-20T17:12:44.903Z,1011.26
2022-08-20T17:13:44.882Z,1011.31
2022-08-20T17:14:48.442Z,1011.27
2022-08-20T17:34:44.525Z,1011.18
2022-08-20T17:35:44.509Z,1011.18
2022-08-20T17:36:44.494Z,1011.20
2022-08-20T17:37:44.474Z,1011.24
2022-08-20T17:38:44.467Z,1011.23
2022-08-20T17:39:44.502Z,1011.22
2022-08-20T17:40:44.428Z,1011.22
2022-08-20T17:41:44.408Z,1011.25
2022-08-20T17:42:44.392Z,1011.28
2022-08-20T17:43:44.378Z,1011.28
2022-08-20T17:44:44.359Z,1011.26
2022-08-20T17:45:44.351Z,1011.25
2022-08-20T17:46:44.322Z,1011.28
2022-08-20T17:47:44.310Z,1011.28
2022-08-20T17:48:44.292Z,1011.30
2022-08-20T17:49:44.273Z,1011.32
2022-08-20T17:50:44.258Z,1011.35
2022-08-20T17:51:44.243Z,1011.33
2022-08-20T17:52:44.223Z,1011.33
2022-08-20T17:53:44.209Z,1011.36
2022-08-20T17:54:44.189Z,1011.35
2022-08-20T17:55:44.172Z,1011.40
2022-08-20T17:56:44.166Z,1011.40
2022-08-20T17:57:44.138Z,1011.39
2022-08-20T17:58:54.398Z,1011.41
2022-08-20T18:12:43.888Z,1011.43
2022-08-20T18:13:44.977Z,1011.44
2022-08-20T18:14:43.854Z,1011.43
2022-08-20T18:15:43.841Z,1011.43
2022-08-20T18:16:43.820Z,1011.42
2022-08-20T18:17:43.801Z,1011.45
2022-08-20T18:18:57.113Z,1011.44
2022-08-20T18:19:43.769Z,1011.40
2022-08-20T18:20:43.756Z,1011.42
2022-08-20T18:21:43.733Z,1011.47
2022-08-20T18:22:43.716Z,1011.47
2022-08-20T18:23:47.522Z,1011.49
2022-08-20T18:24:43.684Z,1011.54
2022-08-20T18:25:43.669Z,1011.56
2022-08-20T18:26:43.649Z,1011.56
2022-08-20T18:27:43.630Z,1011.55
2022-08-20T18:28:43.618Z,1011.57
2022-08-20T18:29:43.597Z,1011.55
2022-08-20T18:30:43.582Z,1011.58
2022-08-20T18:31:43.569Z,1011.53
2022-08-20T18:32:43.547Z,1011.53
2022-08-20T18:33:43.528Z,1011.54
2022-08-20T18:34:43.522Z,1011.51
2022-08-20T18:35:46.103Z,1011.55
2022-08-20T18:36:43.488Z,1011.54
2022-08-20T18:37:43.460Z,1011.55
2022-08-20T18:38:43.447Z,1011.58
2022-08-20T18:39:43.477Z,1011.56
2022-08-20T18:40:43.410Z,1011.61
2022-08-20T18:55:43.154Z,1011.70
2022-08-20T18:56:43.141Z,1011.65
2022-08-20T18:57:43.120Z,1011.67
2022-08-20T18:58:43.105Z,1011.68
2022-08-20T18:59:43.089Z,1011.68
2022-08-20T19:00:43.089Z,1011.69
2022-08-20T19:01:43.118Z,1011.68
2022-08-20T19:02:43.036Z,1011.69
2022-08-20T19:03:43.018Z,1011.70
2022-08-20T19:04:43.000Z,1011.67
2022-08-20T19:05:42.989Z,1011.69
2022-08-20T19:06:42.970Z,1011.71
2022-08-20T19:07:47.984Z,1011.70
2022-08-20T19:08:42.935Z,1011.70
2022-08-20T19:09:42.914Z,1011.73
2022-08-20T19:10:42.896Z,1011.77
2022-08-20T19:11:42.886Z,1011.74
2022-08-20T19:12:42.863Z,1011.73
2022-08-20T19:13:42.849Z,1011.74
2022-08-20T19:14:42.836Z,1011.72
2022-08-20T19:15:42.815Z,1011.72
2022-08-20T19:16:42.798Z,1011.74
2022-08-20T19:17:42.778Z,1011.70
2022-08-20T19:18:42.762Z,1011.74
2022-08-20T19:19:42.748Z,1011.73
2022-08-20T19:20:42.737Z,1011.75
2022-08-20T19:21:42.709Z,1011.74
2022-08-20T19:22:42.691Z,1011.74
2022-08-20T19:33:44.219Z,1011.76
2022-08-20T19:34:42.487Z,1011.79
2022-08-20T19:35:42.469Z,1011.81
2022-08-20T19:36:42.462Z,1011.77
2022-08-20T19:37:51.049Z,1011.77
2022-08-20T19:38:42.416Z,1011.76
2022-08-20T19:39:42.446Z,1011.78
2022-08-20T19:40:43.586Z,1011.78
2022-08-20T19:41:42.365Z,1011.78
2022-08-20T19:42:42.351Z,1011.78
2022-08-20T19:43:42.335Z,1011.76
2022-08-20T19:44:42.314Z,1011.75
2022-08-20T19:45:42.295Z,1011.80
2022-08-20T19:46:42.281Z,1011.78
2022-08-20T19:47:42.264Z,1011.79
2022-08-20T19:48:42.245Z,1011.80
2022-08-20T19:49:42.823Z,1011.79
2022-08-20T19:50:42.209Z,1011.85
2022-08-20T19:51:45.860Z,1011.84
2022-08-20T19:52:42.173Z,1011.81
2022-08-20T19:53:42.157Z,1011.81
2022-08-20T19:54:42.139Z,1011.82
2022-08-20T19:55:42.123Z,1011.79
2022-08-20T19:56:42.104Z,1011.78
2022-08-20T19:57:42.086Z,1011.79
2022-08-20T19:58:42.078Z,1011.80
2022-08-20T20:04:54.972Z,1011.73
2022-08-20T20:05:41.951Z,1011.76
2022-08-20T20:06:41.931Z,1011.75
2022-08-20T20:07:41.918Z,1011.73
2022-08-20T20:08:41.895Z,1011.72
2022-08-20T20:09:41.877Z,1011.74
2022-08-20T20:10:41.862Z,1011.73
2022-08-20T20:11:41.852Z,1011.74
2022-08-20T20:12:41.826Z,1011.75
2022-08-20T20:13:41.808Z,1011.78
2022-08-20T20:14:41.802Z,1011.78
2022-08-20T20:15:41.773Z,1011.74
2022-08-20T20:16:41.762Z,1011.77
2022-08-20T20:17:41.740Z,1011.77
2022-08-20T20:18:41.723Z,1011.73
2022-08-20T20:19:41.702Z,1011.78
2022-08-20T20:20:55.754Z,1011.79
2022-08-20T20:21:41.667Z,1011.78
2022-08-20T20:22:41.658Z,1011.81
2022-08-20T20:23:46.305Z,1011.81
2022-08-20T20:24:41.615Z,1011.83
2022-08-20T20:25:41.596Z,1011.80
2022-08-20T20:26:41.576Z,1011.79
2022-08-20T20:27:41.562Z,1011.82
2022-08-20T20:28:41.544Z,1011.79
2022-08-20T20:29:41.525Z,1011.81
2022-08-20T20:30:41.509Z,1011.79
2022-08-20T20:31:41.492Z,1011.78
2022-08-20T20:32:41.474Z,1011.83
2022-08-20T20:33:44.122Z,1011.79
2022-08-20T20:34:55.486Z,1011.75
2022-08-20T20:35:41.429Z,1011.77
2022-08-20T20:36:41.402Z,1011.82
2022-08-20T20:37:49.656Z,1011.78
2022-08-20T20:42:41.294Z,1011.82
2022-08-20T20:43:41.281Z,1011.81
2022-08-20T20:44:41.259Z,1011.79
2022-08-20T20:45:41.241Z,1011.83
2022-08-20T20:46:41.229Z,1011.81
2022-08-20T20:47:41.205Z,1011.85
2022-08-20T20:48:41.186Z,1011.84
2022-08-20T20:49:41.168Z,1011.85
2022-08-20T20:50:41.152Z,1011.83
2022-08-20T20:51:41.133Z,1011.85
2022-08-20T20:52:41.123Z,1011.83
2022-08-20T20:53:48.406Z,1011.81
2022-08-20T20:54:41.077Z,1011.83
2022-08-20T20:55:41.061Z,1011.78
2022-08-20T20:56:41.045Z,1011.79
2022-08-20T20:57:41.025Z,1011.75
2022-08-20T20:58:41.007Z,1011.74
2022-08-20T20:59:40.991Z,1011.75
2022-08-20T21:00:40.971Z,1011.75
2022-08-20T21:01:50.256Z,1011.73
2022-08-20T21:02:40.941Z,1011.72
2022-08-20T21:03:40.915Z,1011.76
2022-08-20T21:04:42.784Z,1011.73
2022-08-20T21:05:40.881Z,1011.73
2022-08-20T21:06:40.865Z,1011.77
2022-08-20T21:07:40.847Z,1011.78
2022-08-20T21:08:40.828Z,1011.76
2022-08-20T21:09:40.816Z,1011.75
2022-08-20T21:10:40.786Z,1011.70
2022-08-20T21:11:40.772Z,1011.72
2022-08-20T21:12:40.761Z,1011.69
2022-08-20T21:13:40.734Z,1011.74
2022-08-20T21:14:40.713Z,1011.74
2022-08-20T21:15:40.699Z,1011.74
2022-08-20T21:19:45.170Z,1011.77
2022-08-20T21:20:40.606Z,1011.78
2022-08-20T21:21:40.589Z,1011.79
2022-08-20T21:22:40.567Z,1011.80
2022-08-20T21:23:42.013Z,1011.81
2022-08-20T21:24:40.534Z,1011.83
2022-08-20T21:25:40.512Z,1011.84
2022-08-20T21:26:40.495Z,1011.84
2022-08-20T21:27:40.477Z,1011.85
2022-08-20T21:28:40.458Z,1011.84
2022-08-20T21:29:40.441Z,1011.87
2022-08-20T21:30:40.421Z,1011.85
2022-08-20T21:31:40.404Z,1011.86
2022-08-20T21:32:40.384Z,1011.86
2022-08-20T21:33:40.365Z,1011.83
2022-08-20T21:34:40.348Z,1011.87
2022-08-20T21:35:40.332Z,1011.84
2022-08-20T21:36:40.312Z,1011.82
2022-08-20T21:37:40.294Z,1011.79
2022-08-20T21:38:40.276Z,1011.82
2022-08-20T21:39:40.297Z,1011.84
2022-08-20T21:40:40.236Z,1011.81
2022-08-20T21:41:40.219Z,1011.81
2022-08-20T21:42:40.207Z,1011.83
2022-08-20T21:43:40.180Z,1011.83
2022-08-20T21:44:40.161Z,1011.83
2022-08-20T21:45:40.142Z,1011.78
2022-08-20T21:46:40.130Z,1011.78
2022-08-20T21:47:40.106Z,1011.82
2022-08-20T21:48:40.092Z,1011.82
2022-08-20T21:49:40.067Z,1011.82